sensor_id;sensor_type;location;lat;lon;timestamp;pressure;altitude;pressure_sealevel;temperature;humidity
29385;BME280;16367;48.736;9.218;2022-07-29T00:01:15;-23775.03;;;19.27;100.00
29385;BME280;16367;48.736;9.218;2022-07-29T00:03:20;-23773.94;;;19.23;100.00
29385;BME280;16367;48.736;9.218;2022-07-29T00:05:24;-23774.09;;;19.24;100.00
29385;BME280;16367;48.736;9.218;2022-07-29T00:07:27;-23771.75;;;19.16;100.00
29385;BME280;16367;48.736;9.218;2022-07-29T00:09:30;-23773.00;;;19.20;100.00
29385;BME280;16367;48.736;9.218;2022-07-29T00:11:32;-23775.66;;;19.29;100.00
29385;BME280;16367;48.736;9.218;2022-07-29T00:13:35;-23770.97;;;19.14;100.00
29385;BME280;16367;48.736;9.218;2022-07-29T00:15:38;-23770.34;;;19.12;100.00
29385;BME280;16367;48.736;9.218;2022-07-29T00:17:41;-23771.91;;;19.17;100.00
29385;BME280;16367;48.736;9.218;2022-07-29T00:19:43;-23770.97;;;19.14;100.00
29385;BME280;16367;48.736;9.218;2022-07-29T00:21:47;-23766.25;;;18.99;100.00
29385;BME280;16367;48.736;9.218;2022-07-29T00:23:50;-23769.88;;;19.10;100.00
29385;BME280;16367;48.736;9.218;2022-07-29T00:25:53;-23767.50;;;19.03;100.00
29385;BME280;16367;48.736;9.218;2022-07-29T00:27:56;-23768.44;;;19.06;100.00
29385;BME280;16367;48.736;9.218;2022-07-29T00:29:58;-23766.25;;;18.99;100.00
29385;BME280;16367;48.736;9.218;2022-07-29T00:32:01;-23765.00;;;18.95;100.00
29385;BME280;16367;48.736;9.218;2022-07-29T00:34:04;-23764.03;;;18.92;100.00
29385;BME280;16367;48.736;9.218;2022-07-29T00:36:07;-23759.97;;;18.79;100.00
29385;BME280;16367;48.736;9.218;2022-07-29T00:38:11;-23759.97;;;18.79;100.00
29385;BME280;16367;48.736;9.218;2022-07-29T00:40:14;-23758.38;;;18.74;100.00
29385;BME280;16367;48.736;9.218;2022-07-29T00:42:17;-23756.34;;;18.67;100.00
29385;BME280;16367;48.736;9.218;2022-07-29T00:44:20;-23759.50;;;18.77;100.00
29385;BME280;16367;48.736;9.218;2022-07-29T00:46:22;-23759.00;;;18.76;100.00
29385;BME280;16367;48.736;9.218;2022-07-29T00:48:25;-23759.34;;;18.77;100.00
29385;BME280;16367;48.736;9.218;2022-07-29T00:50:28;-23759.66;;;18.78;100.00
29385;BME280;16367;48.736;9.218;2022-07-29T00:52:31;-23758.72;;;18.75;100.00
29385;BME280;16367;48.736;9.218;2022-07-29T00:54:37;-23756.81;;;18.69;100.00
29385;BME280;16367;48.736;9.218;2022-07-29T00:56:45;-23755.56;;;18.65;100.00
29385;BME280;16367;48.736;9.218;2022-07-29T00:58:50;-23755.25;;;18.64;100.00
29385;BME280;16367;48.736;9.218;2022-07-29T01:00:53;-23755.56;;;18.65;100.00
29385;BME280;16367;48.736;9.218;2022-07-29T01:02:56;-23753.38;;;18.57;100.00
29385;BME280;16367;48.736;9.218;2022-07-29T01:04:59;-23755.25;;;18.64;100.00
29385;BME280;16367;48.736;9.218;2022-07-29T01:07:03;-23755.41;;;18.64;100.00
29385;BME280;16367;48.736;9.218;2022-07-29T01:09:06;-23756.97;;;18.69;100.00
29385;BME280;16367;48.736;9.218;2022-07-29T01:11:12;-23759.66;;;18.78;100.00
29385;BME280;16367;48.736;9.218;2022-07-29T01:13:16;-23758.72;;;18.75;100.00
29385;BME280;16367;48.736;9.218;2022-07-29T01:15:19;-23757.75;;;18.72;100.00
29385;BME280;16367;48.736;9.218;2022-07-29T01:17:26;-23758.06;;;18.73;100.00
29385;BME280;16367;48.736;9.218;2022-07-29T01:19:44;-23759.34;;;18.77;100.00
29385;BME280;16367;48.736;9.218;2022-07-29T01:21:51;-23757.75;;;18.72;100.00
29385;BME280;16367;48.736;9.218;2022-07-29T01:24:14;-23756.81;;;18.69;100.00
29385;BME280;16367;48.736;9.218;2022-07-29T01:26:36;-23755.88;;;18.66;100.00
29385;BME280;16367;48.736;9.218;2022-07-29T01:29:05;-23754.31;;;18.60;100.00
29385;BME280;16367;48.736;9.218;2022-07-29T01:31:10;-23754.00;;;18.59;100.00
29385;BME280;16367;48.736;9.218;2022-07-29T01:33:26;-23751.47;;;18.51;100.00
29385;BME280;16367;48.736;9.218;2022-07-29T01:35:48;-23752.25;;;18.54;100.00
29385;BME280;16367;48.736;9.218;2022-07-29T01:37:55;-23752.25;;;18.54;100.00
29385;BME280;16367;48.736;9.218;2022-07-29T01:40:02;-23752.25;;;18.54;100.00
29385;BME280;16367;48.736;9.218;2022-07-29T01:42:12;-23750.22;;;18.47;100.00
29385;BME280;16367;48.736;9.218;2022-07-29T01:44:20;-23748.31;;;18.41;100.00
29385;BME280;16367;48.736;9.218;2022-07-29T01:46:27;-23748.31;;;18.41;100.00
29385;BME280;16367;48.736;9.218;2022-07-29T01:48:37;-23748.94;;;18.43;100.00
29385;BME280;16367;48.736;9.218;2022-07-29T01:50:46;-23750.53;;;18.48;100.00
29385;BME280;16367;48.736;9.218;2022-07-29T01:52:56;-23747.69;;;18.39;100.00
29385;BME280;16367;48.736;9.218;2022-07-29T01:55:03;-23745.19;;;18.31;100.00
29385;BME280;16367;48.736;9.218;2022-07-29T01:57:08;-23744.25;;;18.28;100.00
29385;BME280;16367;48.736;9.218;2022-07-29T01:59:12;-23744.09;;;18.28;100.00
29385;BME280;16367;48.736;9.218;2022-07-29T02:01:17;-23743.28;;;18.25;100.00
29385;BME280;16367;48.736;9.218;2022-07-29T02:03:22;-23745.34;;;18.32;100.00
29385;BME280;16367;48.736;9.218;2022-07-29T02:05:27;-23745.97;;;18.34;100.00
29385;BME280;16367;48.736;9.218;2022-07-29T02:07:32;-23744.88;;;18.30;100.00
29385;BME280;16367;48.736;9.218;2022-07-29T02:09:37;-23745.50;;;18.32;100.00
29385;BME280;16367;48.736;9.218;2022-07-29T02:11:48;-23745.50;;;18.32;100.00
29385;BME280;16367;48.736;9.218;2022-07-29T02:13:52;-23745.03;;;18.31;100.00
29385;BME280;16367;48.736;9.218;2022-07-29T02:15:57;-23741.25;;;18.19;100.00
29385;BME280;16367;48.736;9.218;2022-07-29T02:18:06;-23743.78;;;18.27;100.00
29385;BME280;16367;48.736;9.218;2022-07-29T02:20:10;-23744.25;;;18.28;100.00
29385;BME280;16367;48.736;9.218;2022-07-29T02:22:16;-23741.72;;;18.20;100.00
29385;BME280;16367;48.736;9.218;2022-07-29T02:24:22;-23740.47;;;18.16;100.00
29385;BME280;16367;48.736;9.218;2022-07-29T02:26:26;-23741.09;;;18.18;100.00
29385;BME280;16367;48.736;9.218;2022-07-29T02:28:30;-23740.94;;;18.18;100.00
29385;BME280;16367;48.736;9.218;2022-07-29T02:30:39;-23740.78;;;18.17;100.00
29385;BME280;16367;48.736;9.218;2022-07-29T02:32:44;-23740.47;;;18.16;100.00
29385;BME280;16367;48.736;9.218;2022-07-29T02:34:51;-23739.38;;;18.13;100.00
29385;BME280;16367;48.736;9.218;2022-07-29T02:36:55;-23740.00;;;18.15;100.00
29385;BME280;16367;48.736;9.218;2022-07-29T02:38:59;-23739.06;;;18.12;100.00
29385;BME280;16367;48.736;9.218;2022-07-29T02:41:04;-23737.63;;;18.07;100.00
29385;BME280;16367;48.736;9.218;2022-07-29T02:43:08;-23739.06;;;18.12;100.00
29385;BME280;16367;48.736;9.218;2022-07-29T02:45:12;-23738.41;;;18.10;100.00
29385;BME280;16367;48.736;9.218;2022-07-29T02:47:19;-23735.75;;;18.01;100.00
29385;BME280;16367;48.736;9.218;2022-07-29T02:49:31;-23737.00;;;18.05;100.00
29385;BME280;16367;48.736;9.218;2022-07-29T02:51:43;-23735.59;;;18.01;100.00
29385;BME280;16367;48.736;9.218;2022-07-29T02:53:49;-23737.31;;;18.06;100.00
29385;BME280;16367;48.736;9.218;2022-07-29T02:55:56;-23737.94;;;18.08;100.00
29385;BME280;16367;48.736;9.218;2022-07-29T02:58:02;-23737.31;;;18.06;100.00
29385;BME280;16367;48.736;9.218;2022-07-29T03:00:08;-23738.56;;;18.10;100.00
29385;BME280;16367;48.736;9.218;2022-07-29T03:02:14;-23737.94;;;18.08;100.00
29385;BME280;16367;48.736;9.218;2022-07-29T03:04:17;-23736.06;;;18.02;100.00
29385;BME280;16367;48.736;9.218;2022-07-29T03:06:23;-23734.97;;;17.99;100.00
29385;BME280;16367;48.736;9.218;2022-07-29T03:08:40;-23736.84;;;18.05;100.00
29385;BME280;16367;48.736;9.218;2022-07-29T03:10:45;-23737.94;;;18.08;100.00
29385;BME280;16367;48.736;9.218;2022-07-29T03:12:48;-23738.72;;;18.11;100.00
29385;BME280;16367;48.736;9.218;2022-07-29T03:14:52;-23739.22;;;18.12;100.00
29385;BME280;16367;48.736;9.218;2022-07-29T03:16:55;-23738.25;;;18.09;100.00
29385;BME280;16367;48.736;9.218;2022-07-29T03:18:59;-23738.25;;;18.09;100.00
29385;BME280;16367;48.736;9.218;2022-07-29T03:21:03;-23737.78;;;18.08;100.00
29385;BME280;16367;48.736;9.218;2022-07-29T03:23:06;-23738.56;;;18.10;100.00
29385;BME280;16367;48.736;9.218;2022-07-29T03:25:13;-23738.09;;;18.09;100.00
29385;BME280;16367;48.736;9.218;2022-07-29T03:27:16;-23740.47;;;18.16;100.00
29385;BME280;16367;48.736;9.218;2022-07-29T03:29:19;-23739.22;;;18.12;100.00
29385;BME280;16367;48.736;9.218;2022-07-29T03:31:22;-23737.31;;;18.06;100.00
29385;BME280;16367;48.736;9.218;2022-07-29T03:33:25;-23737.00;;;18.05;100.00
29385;BME280;16367;48.736;9.218;2022-07-29T03:35:27;-23738.56;;;18.10;100.00
29385;BME280;16367;48.736;9.218;2022-07-29T03:37:32;-23732.44;;;17.91;100.00
29385;BME280;16367;48.736;9.218;2022-07-29T03:39:40;-23733.22;;;17.93;100.00
29385;BME280;16367;48.736;9.218;2022-07-29T03:41:48;-23730.25;;;17.83;100.00
29385;BME280;16367;48.736;9.218;2022-07-29T03:43:53;-23731.19;;;17.86;100.00
29385;BME280;16367;48.736;9.218;2022-07-29T03:45:57;-23735.28;;;18.00;100.00
29385;BME280;16367;48.736;9.218;2022-07-29T03:48:06;-23733.69;;;17.95;100.00
29385;BME280;16367;48.736;9.218;2022-07-29T03:50:11;-23726.63;;;17.72;100.00
29385;BME280;16367;48.736;9.218;2022-07-29T03:52:14;-23724.59;;;17.65;100.00
29385;BME280;16367;48.736;9.218;2022-07-29T03:54:18;-23725.38;;;17.68;100.00
29385;BME280;16367;48.736;9.218;2022-07-29T03:56:22;-23726.94;;;17.73;100.00
29385;BME280;16367;48.736;9.218;2022-07-29T03:58:27;-23723.00;;;17.60;100.00
29385;BME280;16367;48.736;9.218;2022-07-29T04:00:31;-23724.59;;;17.65;100.00
29385;BME280;16367;48.736;9.218;2022-07-29T04:02:35;-23723.00;;;17.60;100.00
29385;BME280;16367;48.736;9.218;2022-07-29T04:04:38;-23728.19;;;17.77;100.00
29385;BME280;16367;48.736;9.218;2022-07-29T04:06:44;-23731.97;;;17.89;100.00
29385;BME280;16367;48.736;9.218;2022-07-29T04:08:48;-23729.78;;;17.82;100.00
29385;BME280;16367;48.736;9.218;2022-07-29T04:10:51;-23729.47;;;17.81;100.00
29385;BME280;16367;48.736;9.218;2022-07-29T04:12:54;-23731.81;;;17.88;100.00
29385;BME280;16367;48.736;9.218;2022-07-29T04:14:58;-23735.13;;;17.99;100.00
29385;BME280;16367;48.736;9.218;2022-07-29T04:17:02;-23733.84;;;17.95;100.00
29385;BME280;16367;48.736;9.218;2022-07-29T04:19:05;-23730.09;;;17.83;100.00
29385;BME280;16367;48.736;9.218;2022-07-29T04:21:08;-23729.78;;;17.82;100.00
29385;BME280;16367;48.736;9.218;2022-07-29T04:23:11;-23735.13;;;17.99;100.00
29385;BME280;16367;48.736;9.218;2022-07-29T04:25:13;-23735.75;;;18.01;100.00
29385;BME280;16367;48.736;9.218;2022-07-29T04:27:16;-23735.44;;;18.00;100.00
29385;BME280;16367;48.736;9.218;2022-07-29T04:29:19;-23733.38;;;17.94;100.00
29385;BME280;16367;48.736;9.218;2022-07-29T04:31:23;-23731.97;;;17.89;100.00
29385;BME280;16367;48.736;9.218;2022-07-29T04:33:26;-23736.69;;;18.04;100.00
29385;BME280;16367;48.736;9.218;2022-07-29T04:35:29;-23734.19;;;17.96;100.00
29385;BME280;16367;48.736;9.218;2022-07-29T04:37:39;-23735.13;;;17.99;100.00
29385;BME280;16367;48.736;9.218;2022-07-29T04:39:41;-23735.91;;;18.02;100.00
29385;BME280;16367;48.736;9.218;2022-07-29T04:41:44;-23742.34;;;18.22;100.00
29385;BME280;16367;48.736;9.218;2022-07-29T04:43:47;-23749.75;;;18.46;100.00
29385;BME280;16367;48.736;9.218;2022-07-29T04:45:50;-23753.69;;;18.58;100.00
29385;BME280;16367;48.736;9.218;2022-07-29T04:47:54;-23759.19;;;18.76;100.00
29385;BME280;16367;48.736;9.218;2022-07-29T04:49:57;-23758.72;;;18.75;100.00
29385;BME280;16367;48.736;9.218;2022-07-29T04:52:00;-23766.88;;;19.01;100.00
29385;BME280;16367;48.736;9.218;2022-07-29T04:54:03;-23777.56;;;19.35;100.00
29385;BME280;16367;48.736;9.218;2022-07-29T04:56:06;-23778.81;;;19.39;100.00
29385;BME280;16367;48.736;9.218;2022-07-29T04:58:08;-23772.69;;;19.19;100.00
29385;BME280;16367;48.736;9.218;2022-07-29T05:00:12;-23765.63;;;18.97;100.00
29385;BME280;16367;48.736;9.218;2022-07-29T05:02:15;-23774.41;;;19.25;100.00
29385;BME280;16367;48.736;9.218;2022-07-29T05:04:19;-23785.72;;;19.61;100.00
29385;BME280;16367;48.736;9.218;2022-07-29T05:06:21;-23781.97;;;19.49;100.00
29385;BME280;16367;48.736;9.218;2022-07-29T05:08:24;-23782.28;;;19.50;100.00
29385;BME280;16367;48.736;9.218;2022-07-29T05:10:27;-23795.94;;;19.94;100.00
29385;BME280;16367;48.736;9.218;2022-07-29T05:12:30;-23797.66;;;19.99;100.00
29385;BME280;16367;48.736;9.218;2022-07-29T05:14:33;-23794.38;;;19.89;100.00
29385;BME280;16367;48.736;9.218;2022-07-29T05:16:35;-23795.16;;;19.91;100.00
29385;BME280;16367;48.736;9.218;2022-07-29T05:18:38;-23791.22;;;19.79;100.00
29385;BME280;16367;48.736;9.218;2022-07-29T05:20:42;-23794.03;;;19.88;100.00
29385;BME280;16367;48.736;9.218;2022-07-29T05:22:45;-23788.88;;;19.71;100.00
29385;BME280;16367;48.736;9.218;2022-07-29T05:24:48;-23792.31;;;19.82;100.00
29385;BME280;16367;48.736;9.218;2022-07-29T05:26:50;-23785.41;;;19.60;100.00
29385;BME280;16367;48.736;9.218;2022-07-29T05:28:53;-23783.22;;;19.53;100.00
29385;BME280;16367;48.736;9.218;2022-07-29T05:30:56;-23776.63;;;19.32;100.00
29385;BME280;16367;48.736;9.218;2022-07-29T05:32:59;-23776.31;;;19.31;100.00
29385;BME280;16367;48.736;9.218;2022-07-29T05:35:01;-23777.09;;;19.33;100.00
29385;BME280;16367;48.736;9.218;2022-07-29T05:37:05;-23781.19;;;19.47;100.00
29385;BME280;16367;48.736;9.218;2022-07-29T05:39:08;-23782.75;;;19.52;100.00
29385;BME280;16367;48.736;9.218;2022-07-29T05:41:11;-23790.59;;;19.77;100.00
29385;BME280;16367;48.736;9.218;2022-07-29T05:43:14;-23789.97;;;19.75;100.00
29385;BME280;16367;48.736;9.218;2022-07-29T05:45:16;-23783.38;;;19.54;100.00
29385;BME280;16367;48.736;9.218;2022-07-29T05:47:20;-23789.97;;;19.75;100.00
29385;BME280;16367;48.736;9.218;2022-07-29T05:49:23;-23785.72;;;19.61;100.00
29385;BME280;16367;48.736;9.218;2022-07-29T05:51:27;-23780.69;;;19.45;100.00
29385;BME280;16367;48.736;9.218;2022-07-29T05:53:32;-23789.19;;;19.72;100.00
29385;BME280;16367;48.736;9.218;2022-07-29T05:55:35;-23783.53;;;19.54;100.00
29385;BME280;16367;48.736;9.218;2022-07-29T05:57:39;-23782.13;;;19.50;100.00
29385;BME280;16367;48.736;9.218;2022-07-29T05:59:45;-23784.47;;;19.57;100.00
29385;BME280;16367;48.736;9.218;2022-07-29T06:01:47;-23800.47;;;20.08;100.00
29385;BME280;16367;48.736;9.218;2022-07-29T06:03:50;-23808.81;;;20.35;100.00
29385;BME280;16367;48.736;9.218;2022-07-29T06:05:54;-23804.25;;;20.21;100.00
29385;BME280;16367;48.736;9.218;2022-07-29T06:07:57;-23816.81;;;20.61;100.00
29385;BME280;16367;48.736;9.218;2022-07-29T06:10:01;-23808.03;;;20.33;100.00
29385;BME280;16367;48.736;9.218;2022-07-29T06:12:04;-23810.84;;;20.42;100.00
29385;BME280;16367;48.736;9.218;2022-07-29T06:14:07;-23810.84;;;20.42;100.00
29385;BME280;16367;48.736;9.218;2022-07-29T06:16:10;-23814.91;;;20.55;100.00
29385;BME280;16367;48.736;9.218;2022-07-29T06:18:16;-23811.78;;;20.45;100.00
29385;BME280;16367;48.736;9.218;2022-07-29T06:20:19;-23820.56;;;20.73;100.00
29385;BME280;16367;48.736;9.218;2022-07-29T06:22:29;-23832.94;;;21.13;100.00
29385;BME280;16367;48.736;9.218;2022-07-29T06:24:32;-23852.53;;;21.76;97.22
29385;BME280;16367;48.736;9.218;2022-07-29T06:26:36;-23847.53;;;21.60;94.21
29385;BME280;16367;48.736;9.218;2022-07-29T06:28:40;-23856.94;;;21.90;92.39
29385;BME280;16367;48.736;9.218;2022-07-29T06:30:43;-23869.94;;;22.32;90.54
29385;BME280;16367;48.736;9.218;2022-07-29T06:32:46;-23863.50;;;22.11;89.26
29385;BME280;16367;48.736;9.218;2022-07-29T06:34:49;-23880.09;;;22.64;88.26
29385;BME280;16367;48.736;9.218;2022-07-29T06:36:51;-23871.03;;;22.35;86.92
29385;BME280;16367;48.736;9.218;2022-07-29T06:38:55;-23883.84;;;22.76;81.77
29385;BME280;16367;48.736;9.218;2022-07-29T06:40:58;-23881.19;;;22.68;80.82
29385;BME280;16367;48.736;9.218;2022-07-29T06:43:06;-23882.13;;;22.71;81.63
29385;BME280;16367;48.736;9.218;2022-07-29T06:45:10;-23877.59;;;22.56;80.78
29385;BME280;16367;48.736;9.218;2022-07-29T06:47:12;-23882.59;;;22.72;82.19
29385;BME280;16367;48.736;9.218;2022-07-29T06:49:15;-23882.13;;;22.71;81.83
29385;BME280;16367;48.736;9.218;2022-07-29T06:51:19;-23888.88;;;22.92;81.80
29385;BME280;16367;48.736;9.218;2022-07-29T06:53:24;-23881.81;;;22.70;81.03
29385;BME280;16367;48.736;9.218;2022-07-29T06:55:27;-23883.84;;;22.76;83.74
29385;BME280;16367;48.736;9.218;2022-07-29T06:57:30;-23888.88;;;22.92;82.97
29385;BME280;16367;48.736;9.218;2022-07-29T06:59:34;-23875.41;;;22.49;83.57
29385;BME280;16367;48.736;9.218;2022-07-29T07:01:37;-23873.69;;;22.44;85.14
29385;BME280;16367;48.736;9.218;2022-07-29T07:03:41;-23876.34;;;22.52;84.51
29385;BME280;16367;48.736;9.218;2022-07-29T07:05:44;-23876.97;;;22.54;84.87
29385;BME280;16367;48.736;9.218;2022-07-29T07:07:47;-23873.84;;;22.44;86.38
29385;BME280;16367;48.736;9.218;2022-07-29T07:09:49;-23892.63;;;23.05;83.30
29385;BME280;16367;48.736;9.218;2022-07-29T07:11:52;-23906.06;;;23.48;80.45
29385;BME280;16367;48.736;9.218;2022-07-29T07:13:55;-23897.94;;;23.22;82.59
29385;BME280;16367;48.736;9.218;2022-07-29T07:16:05;-23911.06;;;23.64;80.00
29385;BME280;16367;48.736;9.218;2022-07-29T07:18:08;-23909.97;;;23.60;79.99
29385;BME280;16367;48.736;9.218;2022-07-29T07:20:11;-23912.94;;;23.70;81.10
29385;BME280;16367;48.736;9.218;2022-07-29T07:22:13;-23924.84;;;24.08;78.41
29385;BME280;16367;48.736;9.218;2022-07-29T07:24:16;-23928.56;;;24.20;76.81
29385;BME280;16367;48.736;9.218;2022-07-29T07:26:19;-23909.34;;;23.58;77.77
29385;BME280;16367;48.736;9.218;2022-07-29T07:28:22;-23921.69;;;23.98;78.58
29385;BME280;16367;48.736;9.218;2022-07-29T07:30:25;-23938.25;;;24.52;75.75
29385;BME280;16367;48.736;9.218;2022-07-29T07:32:30;-23929.50;;;24.23;77.36
29385;BME280;16367;48.736;9.218;2022-07-29T07:34:33;-23928.56;;;24.20;77.95
29385;BME280;16367;48.736;9.218;2022-07-29T07:36:36;-23927.31;;;24.16;77.60
29385;BME280;16367;48.736;9.218;2022-07-29T07:38:39;-23920.59;;;23.95;77.95
29385;BME280;16367;48.736;9.218;2022-07-29T07:40:42;-23909.19;;;23.58;79.03
29385;BME280;16367;48.736;9.218;2022-07-29T07:42:45;-23924.22;;;24.06;80.04
29385;BME280;16367;48.736;9.218;2022-07-29T07:44:47;-23939.81;;;24.57;77.15
29385;BME280;16367;48.736;9.218;2022-07-29T07:47:10;-23951.53;;;24.94;74.01
29385;BME280;16367;48.736;9.218;2022-07-29T07:49:14;-23955.13;;;25.06;74.08
29385;BME280;16367;48.736;9.218;2022-07-29T07:51:17;-24000.81;;;26.53;67.47
29385;BME280;16367;48.736;9.218;2022-07-29T07:53:20;-24005.63;;;26.69;63.85
29385;BME280;16367;48.736;9.218;2022-07-29T07:55:23;-23986.63;;;26.08;68.67
29385;BME280;16367;48.736;9.218;2022-07-29T07:57:27;-23963.38;;;25.33;69.70
29385;BME280;16367;48.736;9.218;2022-07-29T07:59:29;-23953.88;;;25.02;70.41
29385;BME280;16367;48.736;9.218;2022-07-29T08:01:32;-23951.69;;;24.95;72.17
29385;BME280;16367;48.736;9.218;2022-07-29T08:03:55;-23982.88;;;25.96;69.07
29385;BME280;16367;48.736;9.218;2022-07-29T08:05:59;-23990.38;;;26.20;68.30
29385;BME280;16367;48.736;9.218;2022-07-29T08:08:02;-24013.44;;;26.94;64.12
29385;BME280;16367;48.736;9.218;2022-07-29T08:10:05;-23990.84;;;26.21;67.77
29385;BME280;16367;48.736;9.218;2022-07-29T08:12:08;-23999.72;;;26.50;66.09
29385;BME280;16367;48.736;9.218;2022-07-29T08:14:11;-24011.72;;;26.89;64.38
29385;BME280;16367;48.736;9.218;2022-07-29T08:16:15;-24038.94;;;27.77;60.70
29385;BME280;16367;48.736;9.218;2022-07-29T08:18:18;-24053.88;;;28.25;59.21
29385;BME280;16367;48.736;9.218;2022-07-29T08:20:21;-24044.41;;;27.94;59.69
29385;BME280;16367;48.736;9.218;2022-07-29T08:22:25;-24019.97;;;27.15;63.90
29385;BME280;16367;48.736;9.218;2022-07-29T08:24:28;-24022.47;;;27.23;63.95
29385;BME280;16367;48.736;9.218;2022-07-29T08:26:47;-24035.53;;;27.66;58.80
29385;BME280;16367;48.736;9.218;2022-07-29T08:28:50;-24038.34;;;27.75;58.95
29385;BME280;16367;48.736;9.218;2022-07-29T08:30:53;-24062.59;;;28.53;57.01
29385;BME280;16367;48.736;9.218;2022-07-29T08:32:57;-24090.53;;;29.44;54.94
29385;BME280;16367;48.736;9.218;2022-07-29T08:35:00;-24058.22;;;28.39;57.50
29385;BME280;16367;48.736;9.218;2022-07-29T08:37:03;-24077.19;;;29.01;56.03
29385;BME280;16367;48.736;9.218;2022-07-29T08:39:07;-24080.59;;;29.12;56.06
29385;BME280;16367;48.736;9.218;2022-07-29T08:41:09;-24086.81;;;29.32;54.66
29385;BME280;16367;48.736;9.218;2022-07-29T08:43:12;-24064.78;;;28.60;57.83
29385;BME280;16367;48.736;9.218;2022-07-29T08:45:15;-24092.09;;;29.49;54.54
29385;BME280;16367;48.736;9.218;2022-07-29T08:47:18;-24133.03;;;30.82;50.55
29385;BME280;16367;48.736;9.218;2022-07-29T08:49:21;-24120.34;;;30.41;52.09
29385;BME280;16367;48.736;9.218;2022-07-29T08:51:25;-24124.38;;;30.54;50.15
29385;BME280;16367;48.736;9.218;2022-07-29T08:53:29;-24129.47;;;30.70;49.81
29385;BME280;16367;48.736;9.218;2022-07-29T08:55:34;-24125.28;;;30.57;50.44
29385;BME280;16367;48.736;9.218;2022-07-29T08:57:38;-24117.84;;;30.33;52.09
29385;BME280;16367;48.736;9.218;2022-07-29T08:59:54;-24079.38;;;29.08;53.09
29385;BME280;16367;48.736;9.218;2022-07-29T09:01:57;-24118.78;;;30.36;52.78
29385;BME280;16367;48.736;9.218;2022-07-29T09:04:05;-24135.84;;;30.91;50.06
29385;BME280;16367;48.736;9.218;2022-07-29T09:06:08;-24170.50;;;32.04;47.77
29385;BME280;16367;48.736;9.218;2022-07-29T09:08:11;-24116.28;;;30.28;52.05
29385;BME280;16367;48.736;9.218;2022-07-29T09:10:14;-24154.25;;;31.51;49.59
29385;BME280;16367;48.736;9.218;2022-07-29T09:12:19;-24141.72;;;31.10;48.08
29385;BME280;16367;48.736;9.218;2022-07-29T09:14:30;-24136.47;;;30.93;49.02
29385;BME280;16367;48.736;9.218;2022-07-29T09:16:47;-24168.66;;;31.98;45.88
29385;BME280;16367;48.736;9.218;2022-07-29T09:18:54;-24173.91;;;32.15;45.50
29385;BME280;16367;48.736;9.218;2022-07-29T09:20:57;-24189.69;;;32.66;44.79
29385;BME280;16367;48.736;9.218;2022-07-29T09:23:17;-24183.81;;;32.47;45.52
29385;BME280;16367;48.736;9.218;2022-07-29T09:25:32;-24188.16;;;32.61;45.18
29385;BME280;16367;48.736;9.218;2022-07-29T09:27:36;-24129.94;;;30.72;47.42
29385;BME280;16367;48.736;9.218;2022-07-29T09:29:39;-24097.69;;;29.67;53.34
29385;BME280;16367;48.736;9.218;2022-07-29T09:31:44;-24138.94;;;31.01;49.88
29385;BME280;16367;48.736;9.218;2022-07-29T09:33:48;-24056.38;;;28.33;55.89
29385;BME280;16367;48.736;9.218;2022-07-29T09:35:59;-24066.47;;;28.66;55.69
29385;BME280;16367;48.736;9.218;2022-07-29T09:38:10;-24105.13;;;29.91;53.73
29385;BME280;16367;48.736;9.218;2022-07-29T09:40:15;-24125.28;;;30.57;49.12
29385;BME280;16367;48.736;9.218;2022-07-29T09:42:27;-24132.41;;;30.80;49.30
29385;BME280;16367;48.736;9.218;2022-07-29T09:44:46;-24140.16;;;31.05;50.29
29385;BME280;16367;48.736;9.218;2022-07-29T09:46:57;-24119.41;;;30.38;51.58
29385;BME280;16367;48.736;9.218;2022-07-29T09:49:06;-24135.22;;;30.89;50.20
29385;BME280;16367;48.736;9.218;2022-07-29T09:51:17;-24131.34;;;30.76;50.92
29385;BME280;16367;48.736;9.218;2022-07-29T09:53:32;-24105.75;;;29.93;50.91
29385;BME280;16367;48.736;9.218;2022-07-29T09:55:46;-24116.16;;;30.27;50.20
29385;BME280;16367;48.736;9.218;2022-07-29T09:57:49;-24073.16;;;28.88;54.82
29385;BME280;16367;48.736;9.218;2022-07-29T10:00:01;-24095.03;;;29.59;53.75
29385;BME280;16367;48.736;9.218;2022-07-29T10:02:11;-24124.97;;;30.56;52.20
29385;BME280;16367;48.736;9.218;2022-07-29T10:04:22;-24094.28;;;29.56;53.93
29385;BME280;16367;48.736;9.218;2022-07-29T10:06:25;-24047.34;;;28.04;57.77
29385;BME280;16367;48.736;9.218;2022-07-29T10:08:28;-24068.19;;;28.71;55.23
29385;BME280;16367;48.736;9.218;2022-07-29T10:10:33;-24066.00;;;28.64;55.39
29385;BME280;16367;48.736;9.218;2022-07-29T10:12:48;-24042.84;;;27.89;58.31
29385;BME280;16367;48.736;9.218;2022-07-29T10:14:51;-24103.59;;;29.86;53.17
29385;BME280;16367;48.736;9.218;2022-07-29T10:16:56;-24064.78;;;28.60;56.73
29385;BME280;16367;48.736;9.218;2022-07-29T10:18:59;-24090.69;;;29.44;54.29
29385;BME280;16367;48.736;9.218;2022-07-29T10:21:02;-24085.88;;;29.29;53.57
29385;BME280;16367;48.736;9.218;2022-07-29T10:23:06;-24087.59;;;29.34;54.09
29385;BME280;16367;48.736;9.218;2022-07-29T10:25:09;-24072.22;;;28.85;55.29
29385;BME280;16367;48.736;9.218;2022-07-29T10:27:12;-24035.53;;;27.66;58.96
29385;BME280;16367;48.736;9.218;2022-07-29T10:29:15;-24058.84;;;28.41;56.06
29385;BME280;16367;48.736;9.218;2022-07-29T10:31:24;-24071.28;;;28.82;54.53
29385;BME280;16367;48.736;9.218;2022-07-29T10:33:49;-24065.38;;;28.62;56.13
29385;BME280;16367;48.736;9.218;2022-07-29T10:36:04;-24038.34;;;27.75;58.28
29385;BME280;16367;48.736;9.218;2022-07-29T10:38:33;-24006.09;;;26.71;61.30
29385;BME280;16367;48.736;9.218;2022-07-29T10:40:52;-24012.50;;;26.91;61.50
29385;BME280;16367;48.736;9.218;2022-07-29T10:43:22;-23999.09;;;26.48;63.12
29385;BME280;16367;48.736;9.218;2022-07-29T10:45:26;-24000.34;;;26.52;63.18
29385;BME280;16367;48.736;9.218;2022-07-29T10:47:31;-23997.84;;;26.44;61.91
29385;BME280;16367;48.736;9.218;2022-07-29T10:49:37;-23974.78;;;25.69;64.52